KFMH/FMH METAR and TAF weather

Enter ICAO airport designator
Station Type Date Time Source
KFMH METAR 2022/12/02 22:45 UTC NOAA

KFMH 022245Z 19008KT 10SM CLR 04/M01 A3050


Station Type Date Time Source
KFMH Decoded METAR 2022/12/02 22:45 UTC NOAA

Otis Air National Guard Base, MA, United States (KFMH) 41-39N 070-31W
Dec 02, 2022 - 05:45 PM EST / 2022.12.02 2245 UTC
Wind: from the S (190 degrees) at 9 MPH (8 KT):0
Visibility: 10 mile(s):0
Sky conditions: clear
Temperature: 39 F (4 C)
Dew Point: 30 F (-1 C)
Relative Humidity: 69%
Pressure (altimeter): 30.5 in. Hg (1032 hPa)
ob: KFMH 022245Z 19008KT 10SM CLR 04/M01 A3050
cycle: 23

Station Type Date Time Source
KFMH TAF 2022/12/02 18:24 UTC NOAA

TAF KFMH 021721Z 0218/0318 22007KT P6SM SKC
FM030800 20009KT P6SM BKN140
FM031100 19013G25KT P6SM OVC060
FM031700 20023G35KT P6SM -RA OVC035

Example: see airport list